createdAt,value
2023-02-09T00:02:17.740Z,-2.00
2023-02-09T00:04:45.750Z,-2.31
2023-02-09T00:07:13.624Z,-1.91
2023-02-09T00:09:41.535Z,-2.16
2023-02-09T00:12:28.959Z,-2.16
2023-02-09T00:14:57.022Z,-2.08
2023-02-09T00:17:24.899Z,-2.54
2023-02-09T00:19:55.124Z,-2.54
2023-02-09T00:22:23.046Z,-2.78
2023-02-09T00:24:50.909Z,-2.73
2023-02-09T00:27:19.110Z,-3.27
2023-02-09T00:29:46.992Z,-3.02
2023-02-09T00:32:15.073Z,-2.96
2023-02-09T00:34:43.144Z,-2.67
2023-02-09T00:37:11.074Z,-2.70
2023-02-09T00:39:38.995Z,-2.73
2023-02-09T00:42:06.916Z,-3.02
2023-02-09T00:44:39.099Z,-2.66
2023-02-09T00:47:09.086Z,-2.35
2023-02-09T00:49:37.580Z,-2.47
2023-02-09T00:52:05.709Z,-2.94
2023-02-09T00:54:33.705Z,-3.23
2023-02-09T00:57:05.285Z,-3.04
2023-02-09T00:59:35.660Z,-3.33
2023-02-09T01:02:04.209Z,-3.42
2023-02-09T01:04:33.189Z,-3.67
2023-02-09T01:07:01.162Z,-3.66
2023-02-09T01:09:29.294Z,-3.65
2023-02-09T01:11:57.220Z,-3.57
2023-02-09T01:14:25.284Z,-3.96
2023-02-09T01:16:53.585Z,-3.89
2023-02-09T01:19:21.624Z,-3.64
2023-02-09T01:21:49.860Z,-3.73
2023-02-09T01:24:17.921Z,-3.56
2023-02-09T01:26:45.869Z,-3.88
2023-02-09T01:29:17.534Z,-3.49
2023-02-09T01:31:46.463Z,-4.18
2023-02-09T01:34:18.558Z,-4.20
2023-02-09T01:36:46.955Z,-3.83
2023-02-09T01:39:15.339Z,-3.42
2023-02-09T01:41:44.664Z,-3.48
2023-02-09T01:44:12.396Z,-3.69
2023-02-09T01:46:40.420Z,-3.63
2023-02-09T01:49:36.582Z,-3.65
2023-02-09T01:52:29.116Z,-3.57
2023-02-09T01:55:06.273Z,-3.79
2023-02-09T01:57:47.450Z,-3.65
2023-02-09T02:00:19.518Z,-3.75
2023-02-09T02:03:08.007Z,-3.83
2023-02-09T02:05:41.592Z,-3.95
2023-02-09T02:08:26.832Z,-4.36
2023-02-09T02:10:55.214Z,-3.99
2023-02-09T02:13:23.384Z,-3.78
2023-02-09T02:16:28.800Z,-4.31
2023-02-09T02:19:05.127Z,-3.84
2023-02-09T02:22:18.418Z,-4.19
2023-02-09T02:25:50.495Z,-4.55
2023-02-09T02:29:08.340Z,-4.78
2023-02-09T02:31:58.913Z,-4.86
2023-02-09T02:35:06.225Z,-4.31
2023-02-09T02:38:17.625Z,-4.52
2023-02-09T02:41:17.798Z,-4.07
2023-02-09T02:44:06.871Z,-4.46
2023-02-09T02:47:01.361Z,-4.44
2023-02-09T02:49:54.782Z,-4.13
2023-02-09T02:52:23.131Z,-4.03
2023-02-09T02:55:15.344Z,-3.69
2023-02-09T02:57:51.480Z,-3.73
2023-02-09T03:00:38.050Z,-3.84
2023-02-09T03:03:15.941Z,-3.68
2023-02-09T03:05:44.990Z,-3.91
2023-02-09T03:08:12.966Z,-3.65
2023-02-09T03:10:42.592Z,-3.36
2023-02-09T03:13:41.940Z,-3.48
2023-02-09T03:16:24.605Z,-3.85
2023-02-09T03:19:24.272Z,-3.84
2023-02-09T03:22:07.405Z,-3.86
2023-02-09T03:25:02.149Z,-3.76
2023-02-09T03:27:45.017Z,-3.43
2023-02-09T03:30:17.634Z,-3.49
2023-02-09T03:32:47.723Z,-3.17
2023-02-09T03:35:20.007Z,-3.15
2023-02-09T03:37:48.143Z,-3.25
2023-02-09T03:40:19.406Z,-3.61
2023-02-09T03:42:48.342Z,-4.05
2023-02-09T03:45:16.461Z,-3.95
2023-02-09T03:47:50.336Z,-4.24
2023-02-09T03:50:18.416Z,-3.69
2023-02-09T03:52:46.397Z,-3.45
2023-02-09T03:55:14.424Z,-3.13
2023-02-09T03:57:42.435Z,-3.42
2023-02-09T04:00:11.842Z,-3.13
2023-02-09T04:02:39.918Z,-3.19
2023-02-09T04:05:08.517Z,-3.46
2023-02-09T04:07:36.559Z,-3.16
2023-02-09T04:10:06.740Z,-2.98
2023-02-09T04:12:34.718Z,-3.21
2023-02-09T04:15:03.257Z,-3.67
2023-02-09T04:17:31.239Z,-3.10
2023-02-09T04:19:59.295Z,-3.43
2023-02-09T04:22:27.188Z,-2.89
2023-02-09T04:24:55.207Z,-2.76
2023-02-09T04:27:23.187Z,-2.78
2023-02-09T04:29:51.651Z,-2.90
2023-02-09T04:32:19.668Z,-2.60
2023-02-09T04:34:47.614Z,-2.92
2023-02-09T04:37:15.768Z,-2.63
2023-02-09T04:39:43.748Z,-2.71
2023-02-09T04:42:11.717Z,-2.53
2023-02-09T04:44:39.683Z,-2.72
2023-02-09T04:47:07.669Z,-2.64
2023-02-09T04:49:35.729Z,-2.53
2023-02-09T04:52:04.036Z,-2.62
2023-02-09T04:54:32.077Z,-2.72
2023-02-09T04:57:18.540Z,-2.68
2023-02-09T04:59:46.517Z,-2.84
2023-02-09T05:02:14.609Z,-2.99
2023-02-09T05:04:42.583Z,-2.72
2023-02-09T05:07:10.723Z,-2.77
2023-02-09T05:09:38.860Z,-2.67
2023-02-09T05:12:10.055Z,-2.81
2023-02-09T05:14:38.393Z,-3.23
2023-02-09T05:17:06.371Z,-2.84
2023-02-09T05:19:36.632Z,-2.97
2023-02-09T05:22:04.572Z,-3.13
2023-02-09T05:24:32.534Z,-2.95
2023-02-09T05:27:00.486Z,-2.98
2023-02-09T05:29:28.542Z,-3.06
2023-02-09T05:31:56.622Z,-3.05
2023-02-09T05:34:24.590Z,-3.19
2023-02-09T05:36:52.638Z,-3.29
2023-02-09T05:39:20.717Z,-3.11
2023-02-09T05:42:07.869Z,-3.33
2023-02-09T05:44:35.855Z,-3.50
2023-02-09T05:47:03.824Z,-3.51
2023-02-09T05:49:32.071Z,-3.12
2023-02-09T05:52:00.243Z,-3.30
2023-02-09T05:54:28.409Z,-3.01
2023-02-09T05:56:56.458Z,-3.11
2023-02-09T05:59:24.446Z,-3.11
2023-02-09T06:01:53.012Z,-3.23
2023-02-09T06:04:22.860Z,-3.08
2023-02-09T06:06:50.977Z,-2.90
2023-02-09T06:09:20.831Z,-2.82
2023-02-09T06:11:49.411Z,-2.88
2023-02-09T06:14:17.902Z,-2.89
2023-02-09T06:16:46.166Z,-3.16
2023-02-09T06:19:19.107Z,-2.84
2023-02-09T06:21:48.122Z,-2.84
2023-02-09T06:24:17.157Z,-2.84
2023-02-09T06:26:45.187Z,-2.84
2023-02-09T06:29:13.656Z,-2.65
2023-02-09T06:31:41.912Z,-2.92
2023-02-09T06:34:10.392Z,-2.81
2023-02-09T06:36:38.260Z,-2.82
2023-02-09T06:39:10.292Z,-2.75
2023-02-09T06:41:39.944Z,-2.65
2023-02-09T06:44:08.229Z,-2.63
2023-02-09T06:46:57.258Z,-2.81
2023-02-09T06:49:26.523Z,-2.72
2023-02-09T06:51:55.010Z,-2.70
2023-02-09T06:54:23.638Z,-2.75
2023-02-09T06:56:52.143Z,-2.54
2023-02-09T06:59:22.843Z,-2.70
2023-02-09T07:01:56.220Z,-3.26
2023-02-09T07:04:24.496Z,-2.57
2023-02-09T07:06:59.364Z,-2.64
2023-02-09T07:09:55.767Z,-2.41
2023-02-09T07:12:34.608Z,-2.48
2023-02-09T07:15:02.548Z,-2.32
2023-02-09T07:17:31.561Z,-2.20
2023-02-09T07:20:00.044Z,-2.34
2023-02-09T07:22:28.094Z,-2.33
2023-02-09T07:24:56.220Z,-2.28
2023-02-09T07:27:24.289Z,-2.26
2023-02-09T07:29:52.245Z,-2.28
2023-02-09T07:32:22.759Z,-2.19
2023-02-09T07:34:50.689Z,-2.10
2023-02-09T07:37:18.818Z,-1.88
2023-02-09T07:39:46.977Z,-1.90
2023-02-09T07:42:15.126Z,-1.92
2023-02-09T07:44:43.144Z,-1.67
2023-02-09T07:47:11.149Z,-1.54
2023-02-09T07:49:39.281Z,-1.72
2023-02-09T07:52:07.297Z,-1.60
2023-02-09T07:54:35.261Z,-1.23
2023-02-09T07:57:03.256Z,-1.25
2023-02-09T07:59:31.245Z,-1.12
2023-02-09T08:01:59.269Z,-0.96
2023-02-09T08:04:27.174Z,-0.92
2023-02-09T08:06:55.767Z,-0.83
2023-02-09T08:09:25.142Z,-0.93
2023-02-09T08:12:05.221Z,-0.82
2023-02-09T08:14:44.364Z,-0.32
2023-02-09T08:17:24.357Z,-0.33
2023-02-09T08:20:02.412Z,-0.33
2023-02-09T08:22:37.289Z,-0.24
2023-02-09T08:25:06.723Z,-0.54
2023-02-09T08:27:39.211Z,-0.34
2023-02-09T08:30:07.979Z,-0.21
2023-02-09T08:32:36.622Z,-0.10
2023-02-09T08:35:05.216Z,-0.02
2023-02-09T08:37:33.500Z,0.03
2023-02-09T08:40:01.378Z,0.32
2023-02-09T08:42:29.314Z,0.31
2023-02-09T08:44:57.235Z,0.24
2023-02-09T08:47:25.336Z,0.08
2023-02-09T08:49:53.210Z,0.24
2023-02-09T08:52:21.174Z,0.54
2023-02-09T08:54:48.989Z,0.55
2023-02-09T08:57:16.948Z,0.65
2023-02-09T08:59:44.938Z,0.63
2023-02-09T09:02:12.830Z,0.83
2023-02-09T09:04:40.725Z,1.03
2023-02-09T09:07:08.651Z,1.23
2023-02-09T09:09:36.598Z,1.27
2023-02-09T09:12:04.668Z,1.10
2023-02-09T09:14:32.926Z,1.19
2023-02-09T09:17:01.244Z,1.28
2023-02-09T09:19:29.289Z,1.41
2023-02-09T09:22:00.312Z,1.59
2023-02-09T09:24:28.331Z,1.56
2023-02-09T09:26:56.899Z,1.49
2023-02-09T09:29:25.670Z,1.45
2023-02-09T09:31:54.014Z,1.65
2023-02-09T09:34:21.997Z,1.96
2023-02-09T09:36:49.914Z,1.69
2023-02-09T09:39:18.847Z,2.05
2023-02-09T09:41:49.293Z,2.08
2023-02-09T09:44:38.045Z,2.15
2023-02-09T09:47:18.033Z,1.84
2023-02-09T09:49:46.912Z,2.13
2023-02-09T09:52:32.187Z,2.36
2023-02-09T09:55:02.765Z,2.38
2023-02-09T09:57:34.330Z,2.27
2023-02-09T10:00:04.769Z,2.56
2023-02-09T10:02:34.806Z,2.48
2023-02-09T10:05:28.024Z,2.65
2023-02-09T10:08:31.345Z,2.56
2023-02-09T10:11:14.832Z,2.71
2023-02-09T10:13:55.951Z,2.83
2023-02-09T10:16:34.656Z,2.94
2023-02-09T10:19:27.794Z,2.75
2023-02-09T10:21:56.424Z,2.61
2023-02-09T10:24:32.836Z,2.79
2023-02-09T10:27:26.596Z,2.53
2023-02-09T10:29:55.124Z,2.76
2023-02-09T10:32:43.255Z,2.99
2023-02-09T10:35:41.853Z,3.27
2023-02-09T10:38:21.631Z,3.16
2023-02-09T10:40:52.476Z,3.10
2023-02-09T10:43:38.551Z,3.31
2023-02-09T10:46:20.293Z,3.37
2023-02-09T10:48:48.752Z,3.27
2023-02-09T10:51:34.154Z,2.75
2023-02-09T10:54:19.281Z,3.56
2023-02-09T10:56:49.688Z,3.31
2023-02-09T10:59:24.986Z,3.20
2023-02-09T11:02:02.519Z,3.43
2023-02-09T11:04:40.056Z,3.78
2023-02-09T11:07:18.334Z,3.87
2023-02-09T11:09:51.125Z,3.79
2023-02-09T11:12:22.635Z,3.75
2023-02-09T11:14:50.596Z,3.85
2023-02-09T11:17:46.478Z,3.82
2023-02-09T11:21:04.018Z,3.92
2023-02-09T11:24:20.242Z,4.04
2023-02-09T11:26:55.205Z,3.91
2023-02-09T11:30:03.879Z,3.98
2023-02-09T11:32:40.062Z,4.07
2023-02-09T11:35:10.034Z,4.21
2023-02-09T11:38:06.346Z,4.12
2023-02-09T11:40:51.798Z,4.27
2023-02-09T11:43:38.227Z,4.56
2023-02-09T11:46:18.592Z,4.74
2023-02-09T11:49:23.585Z,4.83
2023-02-09T11:51:53.736Z,4.98
2023-02-09T11:54:30.142Z,4.76
2023-02-09T11:57:12.860Z,4.63
2023-02-09T11:59:56.390Z,5.18
2023-02-09T12:03:04.099Z,5.43
2023-02-09T12:05:32.356Z,5.32
2023-02-09T12:08:29.462Z,5.47
2023-02-09T12:11:18.089Z,5.46
2023-02-09T12:14:16.801Z,5.42
2023-02-09T12:17:05.140Z,5.53
2023-02-09T12:19:41.592Z,5.31
2023-02-09T12:22:34.144Z,5.40
2023-02-09T12:25:55.235Z,5.10
2023-02-09T12:28:32.427Z,5.27
2023-02-09T12:31:04.445Z,5.16
2023-02-09T12:33:59.875Z,5.12
2023-02-09T12:36:35.202Z,5.46
2023-02-09T12:39:25.092Z,5.43
2023-02-09T12:41:56.025Z,5.60
2023-02-09T12:44:23.802Z,5.56
2023-02-09T12:46:55.884Z,5.61
2023-02-09T12:49:30.031Z,5.77
2023-02-09T12:52:03.628Z,6.18
2023-02-09T12:54:55.398Z,6.38
2023-02-09T12:57:23.747Z,6.02
2023-02-09T12:59:59.491Z,6.00
2023-02-09T13:02:50.012Z,5.49
2023-02-09T13:05:34.094Z,5.62
2023-02-09T13:08:29.046Z,5.57
2023-02-09T13:11:04.926Z,5.59
2023-02-09T13:13:33.699Z,5.66
2023-02-09T13:16:02.992Z,5.79
2023-02-09T13:19:04.919Z,5.86
2023-02-09T13:22:21.286Z,6.05
2023-02-09T13:25:17.554Z,6.31
2023-02-09T13:27:49.978Z,6.51
2023-02-09T13:30:32.271Z,6.30
2023-02-09T13:33:10.170Z,6.02
2023-02-09T13:36:00.403Z,5.44
2023-02-09T13:38:33.691Z,5.67
2023-02-09T13:41:02.139Z,5.58
2023-02-09T13:43:36.869Z,5.63
2023-02-09T13:46:05.304Z,5.57
2023-02-09T13:48:38.975Z,5.60
2023-02-09T13:51:20.359Z,5.35
2023-02-09T13:54:02.690Z,5.75
2023-02-09T13:56:32.996Z,5.79
2023-02-09T13:59:01.218Z,5.61
2023-02-09T14:01:35.617Z,5.30
2023-02-09T14:04:28.075Z,5.47
2023-02-09T14:07:10.633Z,5.41
2023-02-09T14:09:58.037Z,5.39
2023-02-09T14:13:18.927Z,5.37
2023-02-09T14:16:07.644Z,5.60
2023-02-09T14:18:53.311Z,5.40
2023-02-09T14:21:44.180Z,5.61
2023-02-09T14:24:28.873Z,5.11
2023-02-09T14:27:29.532Z,5.21
2023-02-09T14:29:58.631Z,5.34
2023-02-09T14:32:45.275Z,5.39
2023-02-09T14:35:39.946Z,5.13
2023-02-09T14:38:47.685Z,5.17
2023-02-09T14:41:36.437Z,5.23
2023-02-09T14:44:21.277Z,5.06
2023-02-09T14:47:02.142Z,5.21
2023-02-09T14:49:33.342Z,5.16
2023-02-09T14:52:15.052Z,5.22
2023-02-09T14:54:49.744Z,5.18
2023-02-09T14:57:26.663Z,5.12
2023-02-09T14:59:56.201Z,4.84
2023-02-09T15:02:29.048Z,4.76
2023-02-09T15:04:56.997Z,4.77
2023-02-09T15:07:35.742Z,4.78
2023-02-09T15:10:12.188Z,4.60
2023-02-09T15:12:40.206Z,4.44
2023-02-09T15:15:18.175Z,4.47
2023-02-09T15:17:46.576Z,4.43
2023-02-09T15:20:17.658Z,4.33
2023-02-09T15:22:45.652Z,4.31
2023-02-09T15:25:15.129Z,4.15
2023-02-09T15:27:53.645Z,4.09
2023-02-09T15:30:33.496Z,4.21
2023-02-09T15:33:02.283Z,4.12
2023-02-09T15:35:30.701Z,3.97
2023-02-09T15:38:01.530Z,3.88
2023-02-09T15:40:55.691Z,3.90
2023-02-09T15:43:45.794Z,3.73
2023-02-09T15:46:33.670Z,3.59
2023-02-09T15:49:02.495Z,3.56
2023-02-09T15:51:36.305Z,3.53
2023-02-09T15:54:16.064Z,3.55
2023-02-09T15:56:44.399Z,3.48
2023-02-09T15:59:23.324Z,3.36
2023-02-09T16:01:51.505Z,3.23
2023-02-09T16:04:20.051Z,3.26
2023-02-09T16:06:54.093Z,3.16
2023-02-09T16:09:27.986Z,3.20
2023-02-09T16:11:56.011Z,3.14
2023-02-09T16:14:26.899Z,3.06
2023-02-09T16:16:54.984Z,2.79
2023-02-09T16:19:23.303Z,2.86
2023-02-09T16:21:58.115Z,2.78
2023-02-09T16:24:46.214Z,2.56
2023-02-09T16:27:25.628Z,2.76
2023-02-09T16:29:55.189Z,2.83
2023-02-09T16:32:26.795Z,2.88
2023-02-09T16:35:07.360Z,2.84
2023-02-09T16:37:45.775Z,2.78
2023-02-09T16:40:40.073Z,2.58
2023-02-09T16:43:11.274Z,2.63
2023-02-09T16:45:48.532Z,2.51
2023-02-09T16:48:34.642Z,2.70
2023-02-09T16:51:02.852Z,2.66
2023-02-09T16:53:38.195Z,2.62
2023-02-09T16:56:10.140Z,2.75
2023-02-09T16:58:39.257Z,2.72
2023-02-09T17:01:25.120Z,2.63
2023-02-09T17:03:56.339Z,2.59
2023-02-09T17:06:29.250Z,2.65
2023-02-09T17:08:58.634Z,2.59
2023-02-09T17:11:28.810Z,2.63
2023-02-09T17:13:56.703Z,2.59
2023-02-09T17:16:32.927Z,2.62
2023-02-09T17:19:04.797Z,2.65
2023-02-09T17:21:38.822Z,2.63
2023-02-09T17:24:16.951Z,2.65
2023-02-09T17:26:45.274Z,2.64
2023-02-09T17:29:14.154Z,2.53
2023-02-09T17:31:52.708Z,2.54
2023-02-09T17:34:27.008Z,2.59
2023-02-09T17:36:56.973Z,2.60
2023-02-09T17:39:25.392Z,2.42
2023-02-09T17:41:53.442Z,2.53
2023-02-09T17:44:43.714Z,2.47
2023-02-09T17:47:19.929Z,2.46
2023-02-09T17:49:47.909Z,2.35
2023-02-09T17:52:20.963Z,2.42
2023-02-09T17:54:50.814Z,2.46
2023-02-09T17:57:19.573Z,2.38
2023-02-09T17:59:47.803Z,2.39
2023-02-09T18:02:19.717Z,2.42
2023-02-09T18:04:47.731Z,2.30
2023-02-09T18:07:20.169Z,2.34
2023-02-09T18:09:48.282Z,2.38
2023-02-09T18:12:27.116Z,2.31
2023-02-09T18:14:55.035Z,2.20
2023-02-09T18:17:23.018Z,2.26
2023-02-09T18:19:51.010Z,2.26
2023-02-09T18:22:19.818Z,2.21
2023-02-09T18:24:47.733Z,2.33
2023-02-09T18:27:20.949Z,2.31
2023-02-09T18:29:48.874Z,2.29
2023-02-09T18:32:17.478Z,2.22
2023-02-09T18:34:45.340Z,2.22
2023-02-09T18:37:15.772Z,2.18
2023-02-09T18:39:46.544Z,2.02
2023-02-09T18:42:16.365Z,2.02
2023-02-09T18:44:46.838Z,2.01
2023-02-09T18:47:14.828Z,2.03
2023-02-09T18:49:43.068Z,2.13
2023-02-09T18:52:17.066Z,2.03
2023-02-09T18:54:45.056Z,1.98
2023-02-09T18:57:13.741Z,2.10
2023-02-09T18:59:41.938Z,2.07
2023-02-09T19:02:13.642Z,2.10
2023-02-09T19:04:43.700Z,1.91
2023-02-09T19:07:14.172Z,1.98
2023-02-09T19:09:45.970Z,2.10
2023-02-09T19:12:14.041Z,1.92
2023-02-09T19:14:46.405Z,1.86
2023-02-09T19:17:20.571Z,1.93
2023-02-09T19:19:49.679Z,1.77
2023-02-09T19:22:21.527Z,1.86
2023-02-09T19:24:51.264Z,1.80
2023-02-09T19:27:20.421Z,1.80
2023-02-09T19:29:52.116Z,1.78
2023-02-09T19:32:21.415Z,1.74
2023-02-09T19:34:49.918Z,1.64
2023-02-09T19:37:21.768Z,1.70
2023-02-09T19:39:53.026Z,1.63
2023-02-09T19:42:21.866Z,1.61
2023-02-09T19:44:50.200Z,1.70
2023-02-09T19:47:18.198Z,1.62
2023-02-09T19:49:46.466Z,1.57
2023-02-09T19:52:14.435Z,1.43
2023-02-09T19:54:42.718Z,1.41
2023-02-09T19:57:10.681Z,1.39
2023-02-09T19:59:38.576Z,1.34
2023-02-09T20:02:06.896Z,1.41
2023-02-09T20:04:37.700Z,1.18
2023-02-09T20:07:05.812Z,1.29
2023-02-09T20:09:36.349Z,1.32
2023-02-09T20:12:04.910Z,1.27
2023-02-09T20:14:33.576Z,1.21
2023-02-09T20:17:01.748Z,1.15
2023-02-09T20:19:29.895Z,1.15
2023-02-09T20:21:57.771Z,1.13
2023-02-09T20:24:27.919Z,1.14
2023-02-09T20:26:55.766Z,1.10
2023-02-09T20:29:24.084Z,1.03
2023-02-09T20:31:52.121Z,0.96
2023-02-09T20:34:20.263Z,0.91
2023-02-09T20:36:48.209Z,0.99
2023-02-09T20:39:17.700Z,1.01
2023-02-09T20:42:07.213Z,0.95
2023-02-09T20:44:54.044Z,0.89
2023-02-09T20:47:21.961Z,0.85
2023-02-09T20:49:49.968Z,0.96
2023-02-09T20:52:18.105Z,0.97
2023-02-09T20:54:45.974Z,0.95
2023-02-09T20:57:14.051Z,0.86
2023-02-09T20:59:43.417Z,0.82
2023-02-09T21:02:13.499Z,0.73
2023-02-09T21:04:41.758Z,0.56
2023-02-09T21:07:09.703Z,0.73
2023-02-09T21:09:38.434Z,0.64
2023-02-09T21:12:06.387Z,0.69
2023-02-09T21:14:43.344Z,0.65
2023-02-09T21:17:11.809Z,0.53
2023-02-09T21:19:42.130Z,0.64
2023-02-09T21:22:10.099Z,0.58
2023-02-09T21:24:39.160Z,0.62
2023-02-09T21:27:08.106Z,0.63
2023-02-09T21:29:36.596Z,0.59
2023-02-09T21:32:06.923Z,0.40
2023-02-09T21:34:34.977Z,0.69
2023-02-09T21:37:02.851Z,0.68
2023-02-09T21:39:31.457Z,0.63
2023-02-09T21:42:17.990Z,0.73
2023-02-09T21:44:45.909Z,0.69
2023-02-09T21:47:13.936Z,0.73
2023-02-09T21:49:43.891Z,0.79
2023-02-09T21:52:11.854Z,0.79
2023-02-09T21:54:39.824Z,0.96
2023-02-09T21:57:07.765Z,0.91
2023-02-09T21:59:35.639Z,0.98
2023-02-09T22:02:04.037Z,0.96
2023-02-09T22:04:32.186Z,0.96
2023-02-09T22:07:00.122Z,1.06
2023-02-09T22:09:31.022Z,1.10
2023-02-09T22:11:59.001Z,1.09
2023-02-09T22:14:26.966Z,1.22
2023-02-09T22:16:55.115Z,1.29
2023-02-09T22:19:23.344Z,1.35
2023-02-09T22:21:51.377Z,1.36
2023-02-09T22:24:19.733Z,1.35
2023-02-09T22:26:47.770Z,1.47
2023-02-09T22:29:16.901Z,1.51
2023-02-09T22:31:45.689Z,1.59
2023-02-09T22:34:13.798Z,1.75
2023-02-09T22:36:41.848Z,1.75
2023-02-09T22:39:10.202Z,1.82
2023-02-09T22:41:38.187Z,1.82
2023-02-09T22:44:12.001Z,1.94
2023-02-09T22:46:43.035Z,1.95
2023-02-09T22:49:20.861Z,1.97
2023-02-09T22:51:50.443Z,1.99
2023-02-09T22:54:20.279Z,2.02
2023-02-09T22:56:48.282Z,1.95
2023-02-09T22:59:18.889Z,2.09
2023-02-09T23:01:48.283Z,2.02
2023-02-09T23:04:16.440Z,2.20
2023-02-09T23:06:44.680Z,2.16
2023-02-09T23:09:14.188Z,2.20
2023-02-09T23:11:44.774Z,2.20
2023-02-09T23:14:13.581Z,2.25
2023-02-09T23:16:44.746Z,2.21
2023-02-09T23:19:20.416Z,2.12
2023-02-09T23:21:51.948Z,2.19
2023-02-09T23:24:22.238Z,2.15
2023-02-09T23:26:50.934Z,2.27
2023-02-09T23:29:19.300Z,2.21
2023-02-09T23:31:48.313Z,2.30
2023-02-09T23:34:21.287Z,2.26
2023-02-09T23:36:49.937Z,2.38
2023-02-09T23:39:22.472Z,2.38
2023-02-09T23:41:50.511Z,2.39
2023-02-09T23:44:19.534Z,2.45
2023-02-09T23:46:47.629Z,2.47
2023-02-09T23:49:15.518Z,2.50
2023-02-09T23:51:46.545Z,2.54
2023-02-09T23:54:14.631Z,2.52
2023-02-09T23:56:43.186Z,2.49
2023-02-09T23:59:15.429Z,2.50
